This is the latest recevied weather packets stored in our database for station/object WB7AAV. If no packets are shown the sender has not sent any weather packets the latest 10 day(s).
| Time | Temp. | Humidity | Pressure | Rain* | Wind** | Luminosity | Snow |
|---|---|---|---|---|---|---|---|
| 1777335482 | 7.22° C | 79% | 1013.2 hPa | 0.51 mm | - | - | - |
| 1777333982 | 7.78° C | 79% | 1012.9 hPa | 0.25 mm | - | - | - |
| 1777333380 | 7.78° C | 79% | 1012.9 hPa | 0 mm | - | - | - |
| 1777331581 | 8.33° C | 77% | 1012.9 hPa | 0 mm | - | - | - |
| 1777330980 | 7.78° C | 78% | 1012.9 hPa | 0 mm | - | - | - |
| 1777329786 | 7.78° C | 71% | 1012.9 hPa | 0 mm | - | - | - |
| 1777328882 | 8.33° C | 69% | 1012.8 hPa | 0 mm | - | - | - |
| 1777328582 | 8.33° C | 70% | 1012.5 hPa | 0 mm | - | - | - |
| 1777327381 | 8.89° C | 69% | 1012.5 hPa | 0 mm | - | - | - |
| 1777326181 | 8.33° C | 71% | 1012.4 hPa | 0 mm | - | - | - |
| 1777324080 | 7.78° C | 76% | 1012.4 hPa | 0 mm | - | - | - |
| 1777323780 | 7.78° C | 76% | 1012.3 hPa | 0 mm | - | - | - |
| 1777323181 | 6.67° C | 82% | 1012.4 hPa | 0 mm | - | - | - |
| 1777322965 | 6.67° C | 86% | 1012.4 hPa | 0 mm | - | - | - |
| 1777318980 | 3.89° C | 94% | 1013 hPa | 0 mm | - | - | - |
| 1777317479 | 3.33° C | 94% | 1013.1 hPa | 0 mm | - | - | - |
| 1777317184 | 2.78° C | 94% | 1013.1 hPa | 0 mm | - | - | - |
| 1777317178 | 2.78° C | 94% | 1013.2 hPa | 0 mm | - | - | - |
| 1777316281 | 2.78° C | 94% | 1013.4 hPa | 0 mm | - | - | - |
| 1777314177 | 2.78° C | 94% | 1013.5 hPa | 0.25 mm | - | - | - |
| 1777313576 | 2.78° C | 94% | 1013.6 hPa | 0.25 mm | - | - | - |
| 1777313274 | 2.78° C | 94% | 1013.6 hPa | 0.25 mm | - | - | - |
| 1777310872 | 2.78° C | 93% | 1013.6 hPa | 0 mm | - | - | - |
| 1777310574 | 2.78° C | 93% | 1013.6 hPa | 0 mm | - | - | - |
| 1777309672 | 2.78° C | 93% | 1013.5 hPa | 0 mm | - | - | - |
* Rain latest hour (hover to see other rain measurements)
** Current wind speed in m/s (hover to see current wind gust speed)